createdAt,value
2018-09-27T05:55:59.045Z,54.00
2018-09-27T05:58:29.992Z,53.70
2018-09-27T06:01:00.271Z,58.60
2018-09-27T06:03:30.927Z,39.90
2018-09-27T06:06:01.585Z,23.00
2018-09-27T06:08:32.232Z,17.20
2018-09-27T06:11:03.902Z,7.90
2018-09-27T06:13:34.701Z,9.00
2018-09-27T06:16:06.859Z,1.30
2018-09-27T06:18:38.056Z,1.00
2018-09-27T06:21:10.428Z,1.00
2018-09-27T06:23:42.730Z,1.00
2018-09-27T06:26:13.373Z,1.00
2018-09-27T06:28:43.689Z,1.00
2018-09-27T06:31:14.816Z,1.00
2018-09-27T06:33:46.275Z,1.00
2018-09-27T06:36:20.279Z,1.00
2018-09-27T06:38:52.929Z,1.00
2018-09-27T06:41:23.650Z,1.00
2018-09-27T06:43:54.201Z,1.00
2018-09-27T06:46:25.644Z,1.00
2018-09-27T06:48:57.248Z,9.30
2018-09-27T06:51:38.755Z,7.20
2018-09-27T06:54:09.899Z,1.00
2018-09-27T06:56:40.875Z,1.00
2018-09-27T06:59:12.917Z,1.00
2018-09-27T07:01:44.436Z,1.00
2018-09-27T07:04:15.068Z,1.00
2018-09-27T07:06:46.145Z,10.50
2018-09-27T07:09:19.393Z,9.10
2018-09-27T07:11:50.786Z,14.40
2018-09-27T07:14:21.945Z,1.00
2018-09-27T07:16:52.333Z,1.00
2018-09-27T07:19:22.600Z,1.00
2018-09-27T07:21:52.787Z,1.00
2018-09-27T07:24:23.104Z,1.00
2018-09-27T07:26:53.296Z,1.00
2018-09-27T07:29:27.819Z,1.00
2018-09-27T07:31:58.261Z,1.00
2018-09-27T07:34:33.163Z,1.00
2018-09-27T07:37:04.475Z,1.00
2018-09-27T07:39:39.401Z,1.00
2018-09-27T07:42:10.340Z,1.00
2018-09-27T07:44:42.631Z,1.00
2018-09-27T07:47:13.136Z,1.00
2018-09-27T07:49:43.652Z,1.00
2018-09-27T07:52:15.557Z,1.00
2018-09-27T07:54:47.902Z,1.00
2018-09-27T07:57:20.810Z,1.00
2018-09-27T07:59:51.912Z,1.00
2018-09-27T08:02:22.985Z,1.00
2018-09-27T08:04:54.600Z,1.00
2018-09-27T08:07:28.787Z,1.00
2018-09-27T08:09:59.670Z,1.00
2018-09-27T08:12:31.786Z,1.00
2018-09-27T08:15:02.640Z,1.00
2018-09-27T08:17:33.782Z,1.00
2018-09-27T08:20:07.105Z,1.00
2018-09-27T08:22:38.468Z,1.00
2018-09-27T08:25:10.922Z,1.00
2018-09-27T08:30:29.374Z,1.00
2018-09-27T08:33:01.279Z,1.00
2018-09-27T08:35:33.044Z,1.00
2018-09-27T08:38:06.010Z,1.00
2018-09-27T08:40:37.835Z,1.00
2018-09-27T08:43:09.117Z,1.00
2018-09-27T08:45:41.614Z,1.00
2018-09-27T08:48:14.016Z,1.00
2018-09-27T08:50:48.443Z,1.00
2018-09-27T08:53:25.616Z,1.00
2018-09-27T08:55:57.583Z,1.00
2018-09-27T08:58:34.018Z,1.00
2018-09-27T09:01:07.237Z,1.00
2018-09-27T09:03:38.934Z,1.00
2018-09-27T09:06:10.362Z,1.00
2018-09-27T09:08:44.338Z,1.00
2018-09-27T09:11:18.213Z,1.00
2018-09-27T09:13:53.372Z,1.00
2018-09-27T09:16:25.152Z,1.00
2018-09-27T09:19:00.262Z,1.00
2018-09-27T09:21:32.309Z,1.00
2018-09-27T09:24:04.799Z,1.00
2018-09-27T09:26:36.974Z,1.00
2018-09-27T09:29:12.890Z,1.00
2018-09-27T23:08:09.818Z,19.70
2018-09-27T23:10:41.358Z,86.20
2018-09-27T23:13:12.505Z,69.20
2018-09-27T23:15:43.282Z,75.60
2018-09-27T23:18:13.978Z,81.20
2018-09-27T23:20:44.474Z,90.30
2018-09-27T23:23:15.032Z,75.10
2018-09-27T23:25:45.632Z,81.10
2018-09-27T23:28:16.077Z,91.90
2018-09-27T23:30:46.862Z,73.50
2018-09-27T23:33:17.909Z,87.10
2018-09-27T23:35:48.626Z,89.00
2018-09-27T23:38:18.995Z,86.30
2018-09-27T23:40:49.415Z,88.20
2018-09-27T23:43:19.673Z,81.20
2018-09-27T23:45:50.304Z,90.70
2018-09-27T23:48:21.101Z,84.00
2018-09-27T23:50:51.790Z,89.40
2018-09-27T23:53:22.314Z,82.40
2018-09-27T23:55:53.495Z,72.30
2018-09-27T23:58:23.913Z,77.80
